createdAt,value
2017-09-11T00:01:40.656Z,58.80
2017-09-11T00:04:06.988Z,58.70
2017-09-11T00:06:33.352Z,58.70
2017-09-11T00:08:59.715Z,58.80
2017-09-11T00:11:26.824Z,58.80
2017-09-11T00:13:53.215Z,58.80
2017-09-11T00:16:19.540Z,58.60
2017-09-11T00:18:46.002Z,58.80
2017-09-11T00:21:12.351Z,58.80
2017-09-11T00:23:38.663Z,59.00
2017-09-11T00:26:41.015Z,58.90
2017-09-11T00:29:07.329Z,58.60
2017-09-11T00:31:34.477Z,58.70
2017-09-11T00:34:01.608Z,58.90
2017-09-11T00:36:27.997Z,58.90
2017-09-11T00:38:54.383Z,58.80
2017-09-11T00:41:21.448Z,59.10
2017-09-11T00:43:48.511Z,58.90
2017-09-11T00:46:14.943Z,58.90
2017-09-11T00:48:41.340Z,58.80
2017-09-11T00:51:07.789Z,58.70
2017-09-11T00:53:34.948Z,59.10
2017-09-11T00:56:01.329Z,59.10
2017-09-11T00:58:27.729Z,59.00
2017-09-11T01:00:54.076Z,58.70
2017-09-11T01:03:20.411Z,58.60
2017-09-11T01:05:46.812Z,58.80
2017-09-11T01:08:13.148Z,58.90
2017-09-11T01:10:39.506Z,59.00
2017-09-11T01:13:05.956Z,59.00
2017-09-11T01:15:32.431Z,59.10
2017-09-11T01:17:59.610Z,59.20
2017-09-11T01:20:25.970Z,59.30
2017-09-11T01:22:52.392Z,59.40
2017-09-11T01:25:18.843Z,59.30
2017-09-11T01:27:45.303Z,59.20
2017-09-11T01:30:12.424Z,59.00
2017-09-11T01:32:38.776Z,59.00
2017-09-11T01:35:05.889Z,59.20
2017-09-11T01:37:32.200Z,59.20
2017-09-11T01:39:58.522Z,59.20
2017-09-11T01:42:24.945Z,59.00
2017-09-11T01:44:51.303Z,59.10
2017-09-11T01:47:17.660Z,59.20
2017-09-11T01:49:44.073Z,58.90
2017-09-11T01:52:10.434Z,58.70
2017-09-11T01:54:36.828Z,58.60
2017-09-11T01:57:03.150Z,58.70
2017-09-11T01:59:29.546Z,58.80
2017-09-11T02:01:56.612Z,58.50
2017-09-11T02:04:22.926Z,58.50
2017-09-11T02:06:50.026Z,58.50
2017-09-11T02:09:16.345Z,58.50
2017-09-11T02:11:42.723Z,58.60
2017-09-11T02:14:09.262Z,58.90
2017-09-11T02:16:35.655Z,58.70
2017-09-11T02:19:02.019Z,58.50
2017-09-11T02:21:28.426Z,58.90
2017-09-11T02:23:54.780Z,59.00
2017-09-11T02:26:21.167Z,58.70
2017-09-11T02:28:47.489Z,58.50
2017-09-11T02:31:13.918Z,58.50
2017-09-11T02:33:40.297Z,58.70
2017-09-11T02:36:06.704Z,58.60
2017-09-11T02:38:33.084Z,58.50
2017-09-11T02:40:59.468Z,58.60
2017-09-11T02:43:25.848Z,58.50
2017-09-11T02:45:52.965Z,58.30
2017-09-11T02:48:19.279Z,58.30
2017-09-11T02:50:45.603Z,58.40
2017-09-11T02:53:11.953Z,58.40
2017-09-11T02:55:38.342Z,58.40
2017-09-11T02:58:04.713Z,58.40
2017-09-11T03:00:31.075Z,58.40
2017-09-11T03:02:57.429Z,58.50
2017-09-11T03:05:24.566Z,58.40
2017-09-11T03:07:51.724Z,58.40
2017-09-11T03:10:18.828Z,58.40
2017-09-11T03:12:45.180Z,58.40
2017-09-11T03:15:11.492Z,58.40
2017-09-11T03:17:37.914Z,58.20
2017-09-11T03:20:04.277Z,58.10
2017-09-11T03:22:30.687Z,58.10
2017-09-11T03:24:57.052Z,58.10
2017-09-11T03:27:24.167Z,58.90
2017-09-11T03:29:50.545Z,58.20
2017-09-11T03:32:17.603Z,58.30
2017-09-11T03:34:43.925Z,58.20
2017-09-11T03:37:11.049Z,58.10
2017-09-11T03:39:37.369Z,58.10
2017-09-11T03:42:03.768Z,58.00
2017-09-11T03:44:30.095Z,57.90
2017-09-11T03:46:56.476Z,58.00
2017-09-11T03:49:22.819Z,58.10
2017-09-11T03:51:49.873Z,58.30
2017-09-11T03:54:17.048Z,58.20
2017-09-11T03:56:43.400Z,58.20
2017-09-11T03:59:09.779Z,58.30
2017-09-11T04:01:36.136Z,58.10
2017-09-11T04:04:02.530Z,57.50
2017-09-11T04:06:28.895Z,57.70
2017-09-11T04:08:55.980Z,58.00
2017-09-11T04:11:22.344Z,58.00
2017-09-11T04:13:48.691Z,57.60
2017-09-11T04:16:15.802Z,58.20
2017-09-11T04:18:42.267Z,58.20
2017-09-11T04:21:08.676Z,58.50
2017-09-11T04:23:35.029Z,58.90
2017-09-11T04:26:01.389Z,58.50
2017-09-11T04:28:27.701Z,58.40
2017-09-11T04:30:54.763Z,58.30
2017-09-11T04:33:21.140Z,58.30
2017-09-11T04:35:47.458Z,58.70
2017-09-11T04:38:13.865Z,58.10
2017-09-11T04:40:40.279Z,57.90
2017-09-11T04:43:07.618Z,57.90
2017-09-11T04:45:34.685Z,57.70
2017-09-11T04:48:01.771Z,58.10
2017-09-11T04:50:28.163Z,58.00
2017-09-11T04:52:55.259Z,57.70
2017-09-11T04:55:21.619Z,57.70
2017-09-11T04:57:48.280Z,57.60
2017-09-11T05:00:15.333Z,57.50
2017-09-11T05:02:42.429Z,57.40
2017-09-11T05:05:08.787Z,57.30
2017-09-11T05:07:35.122Z,57.40
2017-09-11T05:10:01.563Z,57.60
2017-09-11T05:12:27.983Z,57.50
2017-09-11T05:14:54.341Z,57.80
2017-09-11T05:17:21.442Z,57.80
2017-09-11T05:19:47.760Z,57.80
2017-09-11T05:22:14.086Z,57.70
2017-09-11T05:24:40.466Z,58.10
2017-09-11T05:27:06.815Z,57.90
2017-09-11T05:29:33.960Z,57.80
2017-09-11T05:32:01.126Z,57.90
2017-09-11T05:34:27.583Z,57.80
2017-09-11T05:36:53.951Z,57.90
2017-09-11T05:39:20.313Z,57.80
2017-09-11T05:41:47.420Z,57.50
2017-09-11T05:44:13.843Z,57.50
2017-09-11T05:46:40.164Z,57.50
2017-09-11T05:49:06.490Z,57.70
2017-09-11T05:51:32.896Z,57.90
2017-09-11T05:53:59.290Z,58.20
2017-09-11T05:56:25.622Z,58.20
2017-09-11T05:58:52.011Z,58.30
2017-09-11T06:01:18.381Z,58.40
2017-09-11T06:03:44.812Z,58.80
2017-09-11T06:06:11.135Z,59.30
2017-09-11T06:08:37.511Z,59.10
2017-09-11T06:11:04.693Z,59.00
2017-09-11T06:13:31.038Z,59.00
2017-09-11T06:15:57.528Z,59.20
2017-09-11T06:18:24.619Z,59.30
2017-09-11T06:20:51.039Z,59.20
2017-09-11T06:23:18.146Z,59.30
2017-09-11T06:25:45.201Z,59.60
2017-09-11T06:28:12.302Z,59.70
2017-09-11T06:30:38.708Z,59.70
2017-09-11T06:33:05.113Z,59.60
2017-09-11T06:35:32.223Z,60.10
2017-09-11T06:37:58.726Z,60.10
2017-09-11T06:40:25.032Z,60.30
2017-09-11T06:42:52.103Z,60.80
2017-09-11T06:45:18.460Z,60.80
2017-09-11T06:47:44.835Z,60.30
2017-09-11T06:50:12.058Z,59.70
2017-09-11T06:52:38.438Z,59.70
2017-09-11T06:55:05.072Z,59.50
2017-09-11T06:57:31.458Z,59.40
2017-09-11T06:59:57.860Z,59.30
2017-09-11T07:02:24.213Z,59.40
2017-09-11T07:04:50.527Z,59.10
2017-09-11T07:07:16.908Z,59.20
2017-09-11T07:09:44.256Z,59.20
2017-09-11T07:12:23.885Z,59.30
2017-09-11T07:14:50.220Z,59.30
2017-09-11T07:17:16.548Z,59.30
2017-09-11T07:19:42.947Z,59.10
2017-09-11T07:22:09.275Z,59.00
2017-09-11T07:24:35.635Z,58.70
2017-09-11T07:27:02.072Z,58.80
2017-09-11T07:29:28.451Z,58.40
2017-09-11T07:31:54.804Z,58.70
2017-09-11T07:34:21.218Z,59.20
2017-09-11T07:36:47.551Z,59.30
2017-09-11T07:39:13.865Z,59.30
2017-09-11T07:41:40.985Z,59.40
2017-09-11T07:44:07.338Z,59.40
2017-09-11T07:46:34.776Z,59.00
2017-09-11T07:49:02.843Z,59.00
2017-09-11T07:51:29.988Z,59.00
2017-09-11T07:53:56.349Z,59.00
2017-09-11T07:56:23.512Z,59.20
2017-09-11T07:58:49.953Z,59.20
2017-09-11T08:01:16.274Z,59.50
2017-09-11T08:03:42.653Z,59.20
2017-09-11T08:06:08.969Z,59.40
2017-09-11T08:08:35.291Z,58.90
2017-09-11T08:11:01.703Z,59.20
2017-09-11T08:13:28.077Z,59.20
2017-09-11T08:15:54.429Z,59.00
2017-09-11T08:18:20.928Z,58.80
2017-09-11T10:13:35.669Z,58.30
2017-09-11T10:16:02.159Z,58.50
2017-09-11T10:18:28.687Z,57.80
2017-09-11T10:20:55.066Z,58.20
2017-09-11T10:23:21.833Z,57.40
2017-09-11T10:25:49.055Z,57.30
2017-09-11T10:28:16.804Z,57.30
2017-09-11T10:30:43.354Z,56.60
2017-09-11T10:33:09.689Z,57.30
2017-09-11T10:35:36.210Z,57.60
2017-09-11T10:38:02.571Z,56.70
2017-09-11T10:40:28.893Z,55.60
2017-09-11T10:42:55.259Z,55.80
2017-09-11T10:45:22.321Z,56.90
2017-09-11T10:47:48.698Z,56.90
2017-09-11T10:50:15.107Z,57.40
2017-09-11T10:52:41.453Z,57.30
2017-09-11T10:55:07.843Z,57.90
2017-09-11T10:57:34.570Z,57.80
2017-09-11T11:00:01.030Z,58.00
2017-09-11T11:02:27.433Z,58.40
2017-09-11T11:04:54.911Z,58.50
2017-09-11T11:07:21.458Z,58.50
2017-09-11T11:09:48.739Z,59.10
2017-09-11T11:12:15.654Z,59.00
2017-09-11T11:14:42.083Z,60.50
2017-09-11T11:17:08.403Z,60.60
2017-09-11T11:19:34.728Z,60.90
2017-09-11T11:22:02.080Z,62.90
2017-09-11T11:24:29.530Z,62.90
2017-09-11T11:26:56.950Z,63.80
2017-09-11T11:29:23.767Z,64.10
2017-09-11T11:31:50.910Z,64.20
2017-09-11T11:34:17.469Z,64.80
2017-09-11T11:36:43.877Z,66.10
2017-09-11T11:39:11.135Z,61.90
2017-09-11T11:41:37.517Z,61.90
2017-09-11T11:44:03.855Z,61.00
2017-09-11T11:46:30.971Z,61.80
2017-09-11T11:48:57.427Z,61.80
2017-09-11T11:51:23.865Z,62.50
2017-09-11T11:53:50.383Z,63.20
2017-09-11T11:56:16.782Z,64.10
2017-09-11T11:58:43.117Z,64.20
2017-09-11T12:01:09.691Z,64.80
2017-09-11T12:03:36.324Z,65.30
2017-09-11T12:06:02.737Z,66.00
2017-09-11T12:08:29.538Z,66.50
2017-09-11T12:10:56.205Z,66.40
2017-09-11T12:13:22.998Z,67.50
2017-09-11T12:15:49.412Z,68.40
2017-09-11T12:18:15.804Z,69.30
2017-09-11T12:20:42.268Z,70.60
2017-09-11T12:23:08.595Z,71.80
2017-09-11T12:25:34.922Z,72.00
2017-09-11T12:28:01.384Z,73.20
2017-09-11T12:30:27.742Z,71.60
2017-09-11T12:32:54.832Z,73.20
2017-09-11T12:35:21.267Z,73.10
2017-09-11T12:37:47.647Z,72.70
2017-09-11T12:40:14.731Z,75.10
2017-09-11T12:42:41.204Z,75.10
2017-09-11T12:45:07.517Z,74.10
2017-09-11T12:47:33.899Z,74.30
2017-09-11T12:50:00.947Z,69.50
2017-09-11T12:52:28.104Z,69.30
2017-09-11T12:54:54.563Z,69.30
2017-09-11T12:57:20.917Z,66.60
2017-09-11T12:59:47.379Z,68.20
2017-09-11T13:02:14.430Z,70.00
2017-09-11T13:04:41.508Z,68.10
2017-09-11T13:07:07.899Z,68.00
2017-09-11T13:09:34.259Z,67.70
2017-09-11T13:12:00.644Z,65.80
2017-09-11T13:14:27.039Z,65.80
2017-09-11T13:16:53.439Z,67.30
2017-09-11T13:19:20.602Z,66.40
2017-09-11T13:21:47.728Z,63.80
2017-09-11T13:24:14.062Z,63.80
2017-09-11T13:26:41.364Z,63.90
2017-09-11T13:29:07.983Z,63.90
2017-09-11T13:31:34.323Z,60.60
2017-09-11T13:34:00.748Z,60.00
2017-09-11T13:36:27.137Z,60.50
2017-09-11T13:38:53.614Z,61.30
2017-09-11T13:41:20.013Z,58.90
2017-09-11T13:43:46.363Z,59.00
2017-09-11T13:46:13.463Z,58.80
2017-09-11T13:48:40.004Z,58.70
2017-09-11T13:51:07.092Z,58.30
2017-09-11T13:53:34.176Z,57.70
2017-09-11T13:56:00.644Z,57.70
2017-09-11T13:58:27.020Z,57.70
2017-09-11T14:00:53.419Z,57.40
2017-09-11T14:03:19.748Z,54.60
2017-09-11T14:05:46.120Z,55.90
2017-09-11T14:08:12.487Z,55.70
2017-09-11T14:10:38.956Z,55.50
2017-09-11T14:13:06.102Z,55.30
2017-09-11T14:15:32.476Z,55.30
2017-09-11T14:17:58.827Z,54.00
2017-09-11T14:20:25.246Z,55.30
2017-09-11T14:22:52.107Z,55.30
2017-09-11T14:25:18.483Z,55.80
2017-09-11T14:27:45.594Z,56.30
2017-09-11T14:30:11.979Z,56.40
2017-09-11T14:32:38.301Z,54.90
2017-09-11T14:35:05.376Z,56.60
2017-09-11T14:37:31.772Z,56.60
2017-09-11T14:39:58.920Z,57.40
2017-09-11T14:42:26.095Z,57.20
2017-09-11T14:44:52.552Z,57.20
2017-09-11T14:47:18.910Z,57.30
2017-09-11T14:49:45.270Z,57.80
2017-09-11T14:52:12.406Z,57.20
2017-09-11T14:54:38.796Z,57.20
2017-09-11T14:57:05.180Z,56.80
2017-09-11T14:59:32.306Z,57.70
2017-09-11T15:01:58.863Z,57.70
2017-09-11T15:04:25.976Z,57.10
2017-09-11T15:06:52.349Z,57.10
2017-09-11T15:09:20.148Z,58.30
2017-09-11T15:11:46.528Z,58.20
2017-09-11T15:14:13.080Z,56.80
2017-09-11T15:16:40.516Z,56.70
2017-09-11T15:19:07.082Z,56.70
2017-09-11T15:21:33.497Z,56.80
2017-09-11T15:23:59.912Z,57.00
2017-09-11T15:26:26.620Z,57.60
2017-09-11T15:28:53.207Z,56.80
2017-09-11T15:31:20.358Z,57.30
2017-09-11T15:33:47.027Z,57.30
2017-09-11T15:36:13.510Z,57.70
2017-09-11T15:38:40.356Z,57.80
2017-09-11T15:41:08.017Z,57.90
2017-09-11T15:43:34.872Z,57.90
2017-09-11T15:46:01.235Z,58.20
2017-09-11T15:48:27.714Z,57.60
2017-09-11T15:50:55.073Z,56.90
2017-09-11T15:53:21.501Z,57.50
2017-09-11T15:55:47.830Z,57.90
2017-09-11T15:58:15.115Z,57.00
2017-09-11T16:00:42.252Z,56.80
2017-09-11T16:03:08.631Z,56.80
2017-09-11T16:05:35.000Z,56.40
2017-09-11T16:08:01.365Z,57.00
2017-09-11T16:10:27.945Z,56.60
2017-09-11T16:12:54.430Z,56.20
2017-09-11T16:15:21.439Z,55.80
2017-09-11T16:17:48.096Z,55.70
2017-09-11T16:20:15.066Z,55.80
2017-09-11T16:22:42.531Z,54.80
2017-09-11T16:25:09.415Z,54.80
2017-09-11T16:27:35.912Z,54.50
2017-09-11T16:30:02.429Z,54.70
2017-09-11T16:32:29.992Z,54.50
2017-09-11T16:34:56.714Z,54.50
2017-09-11T16:37:23.079Z,54.10
2017-09-11T16:39:50.244Z,54.10
2017-09-11T16:42:16.759Z,54.10
2017-09-11T16:44:43.862Z,54.50
2017-09-11T16:47:10.311Z,54.40
2017-09-11T16:49:36.941Z,54.90
2017-09-11T16:52:03.702Z,54.60
2017-09-11T16:54:30.187Z,54.20
2017-09-11T16:56:56.554Z,54.40
2017-09-11T16:59:23.611Z,54.60
2017-09-11T17:01:50.972Z,54.90
2017-09-11T17:04:17.349Z,54.90
2017-09-11T17:06:43.847Z,54.70
2017-09-11T17:09:10.958Z,54.90
2017-09-11T17:11:37.334Z,54.90
2017-09-11T17:14:04.007Z,54.90
2017-09-11T17:16:30.363Z,55.20
2017-09-11T17:18:56.727Z,55.80
2017-09-11T17:21:23.110Z,55.30
2017-09-11T17:23:49.499Z,56.60
2017-09-11T17:26:16.651Z,55.80
2017-09-11T17:28:43.817Z,56.10
2017-09-11T17:31:10.158Z,56.10
2017-09-11T17:33:36.516Z,56.10
2017-09-11T17:36:02.978Z,56.40
2017-09-11T17:38:29.328Z,56.30
2017-09-11T17:40:56.456Z,56.20
2017-09-11T17:43:22.892Z,56.20
2017-09-11T17:45:49.310Z,56.60
2017-09-11T17:48:16.542Z,56.40
2017-09-11T17:50:43.006Z,56.40
2017-09-11T17:53:09.436Z,56.50
2017-09-11T17:55:35.790Z,56.30
2017-09-11T17:58:03.033Z,56.50
2017-09-11T18:00:29.408Z,56.50
2017-09-11T18:02:55.721Z,56.70
2017-09-11T18:05:22.951Z,56.20
2017-09-11T18:07:50.127Z,56.60
2017-09-11T18:10:17.058Z,56.30
2017-09-11T18:12:44.640Z,56.50
2017-09-11T18:15:11.320Z,56.50
2017-09-11T18:17:38.588Z,56.00
2017-09-11T18:20:05.223Z,56.00
2017-09-11T18:22:31.616Z,56.20
2017-09-11T18:24:58.043Z,56.00
2017-09-11T18:27:24.572Z,55.70
2017-09-11T18:29:51.150Z,55.80
2017-09-11T18:32:17.965Z,55.10
2017-09-11T18:34:44.790Z,55.10
2017-09-11T18:37:12.038Z,55.20
2017-09-11T18:39:38.904Z,55.20
2017-09-11T18:42:05.764Z,55.10
2017-09-11T18:44:32.486Z,55.00
2017-09-11T18:46:59.095Z,55.50
2017-09-11T18:49:26.522Z,55.20
2017-09-11T18:51:53.427Z,55.20
2017-09-11T18:54:19.971Z,54.90
2017-09-11T18:56:46.516Z,54.80
2017-09-11T18:59:12.993Z,54.90
2017-09-11T19:01:40.318Z,54.20
2017-09-11T19:04:07.049Z,54.20
2017-09-11T19:06:33.538Z,53.90
2017-09-11T19:09:00.004Z,53.90
2017-09-11T19:11:27.747Z,54.20
2017-09-11T19:13:54.740Z,54.20
2017-09-11T19:16:21.889Z,54.20
2017-09-11T19:18:48.513Z,54.20
2017-09-11T19:21:15.170Z,54.20
2017-09-11T19:23:42.917Z,54.50
2017-09-11T19:26:09.545Z,54.60
2017-09-11T19:28:36.806Z,54.10
2017-09-11T19:31:03.357Z,54.60
2017-09-11T19:33:30.236Z,54.30
2017-09-11T19:35:57.335Z,54.40
2017-09-11T19:38:23.703Z,54.40
2017-09-11T19:40:50.989Z,54.30
2017-09-11T19:43:17.408Z,54.30
2017-09-11T19:45:43.781Z,54.10
2017-09-11T19:48:10.194Z,54.20
2017-09-11T19:50:36.586Z,54.10
2017-09-11T19:53:03.691Z,54.20
2017-09-11T19:55:31.152Z,54.10
2017-09-11T19:57:57.512Z,54.10
2017-09-11T20:00:24.221Z,53.80
2017-09-11T20:02:50.662Z,53.70
2017-09-11T20:05:17.060Z,54.30
2017-09-11T20:07:43.406Z,54.20
2017-09-11T20:10:09.787Z,54.50
2017-09-11T20:12:36.867Z,54.70
2017-09-11T20:15:03.298Z,54.70
2017-09-11T20:17:29.804Z,54.90
2017-09-11T20:19:56.987Z,55.10
2017-09-11T20:22:23.332Z,55.00
2017-09-11T20:24:49.750Z,55.60
2017-09-11T20:27:16.075Z,55.20
2017-09-11T20:29:42.504Z,55.20
2017-09-11T20:32:08.864Z,55.30
2017-09-11T20:34:35.193Z,55.20
2017-09-11T20:37:01.636Z,55.20
2017-09-11T20:39:28.032Z,55.40
2017-09-11T20:41:54.456Z,55.80
2017-09-11T20:44:21.526Z,55.70
2017-09-11T20:46:47.857Z,55.60
2017-09-11T20:49:14.247Z,56.00
2017-09-11T20:51:40.667Z,56.00
2017-09-11T20:54:07.028Z,56.30
2017-09-11T20:56:34.170Z,56.50
2017-09-11T20:59:01.287Z,56.40
2017-09-11T21:01:27.647Z,56.40
2017-09-11T21:03:54.782Z,56.50
2017-09-11T21:06:21.169Z,56.40
2017-09-11T21:08:47.488Z,56.20
2017-09-11T21:11:13.801Z,56.30
2017-09-11T21:13:40.927Z,56.70
2017-09-11T21:16:07.254Z,56.70
2017-09-11T21:18:33.574Z,56.50
2017-09-11T21:20:59.951Z,56.40
2017-09-11T21:23:27.046Z,55.90
2017-09-11T21:25:53.432Z,55.90
2017-09-11T21:28:20.542Z,55.90
2017-09-11T21:30:46.892Z,55.90
2017-09-11T21:33:13.945Z,55.80
2017-09-11T21:35:41.316Z,55.90
2017-09-11T21:38:07.687Z,55.90
2017-09-11T21:40:34.119Z,55.90
2017-09-11T21:43:00.536Z,55.50
2017-09-11T21:45:26.912Z,56.10
2017-09-11T21:47:53.337Z,56.10
2017-09-11T21:50:19.654Z,55.80
2017-09-11T21:52:46.030Z,56.00
2017-09-11T21:55:13.100Z,55.60
2017-09-11T21:57:39.483Z,55.60
2017-09-11T22:00:05.908Z,55.60
2017-09-11T22:02:32.299Z,55.90
2017-09-11T22:04:58.695Z,56.50
2017-09-11T22:07:25.824Z,56.60
2017-09-11T22:09:52.152Z,56.50
2017-09-11T22:12:18.564Z,56.70
2017-09-11T22:14:44.909Z,56.50
2017-09-11T22:17:12.055Z,56.70
2017-09-11T22:19:38.427Z,56.70
2017-09-11T22:22:05.518Z,56.80
2017-09-11T22:24:31.903Z,56.80
2017-09-11T22:26:58.968Z,56.70
2017-09-11T22:29:26.028Z,56.80
2017-09-11T22:31:52.396Z,56.80
2017-09-11T22:34:18.718Z,56.80
2017-09-11T22:36:45.068Z,57.30
2017-09-11T22:39:11.463Z,56.70
2017-09-11T22:41:37.844Z,56.70
2017-09-11T22:44:04.283Z,56.40
2017-09-11T22:46:30.736Z,56.80
2017-09-11T22:48:57.116Z,56.50
2017-09-11T22:51:23.487Z,56.70
2017-09-11T22:53:50.546Z,56.50
2017-09-11T22:56:17.688Z,56.40
2017-09-11T22:58:44.788Z,56.20
2017-09-11T23:01:11.228Z,56.20
2017-09-11T23:03:37.561Z,56.20
2017-09-11T23:06:04.655Z,56.40
2017-09-11T23:08:31.785Z,56.30
2017-09-11T23:10:58.107Z,56.30
2017-09-11T23:13:24.470Z,56.30
2017-09-11T23:15:51.525Z,56.30
2017-09-11T23:18:17.861Z,56.30
2017-09-11T23:20:44.269Z,56.40
2017-09-11T23:23:11.404Z,56.00
2017-09-11T23:25:37.806Z,56.00
2017-09-11T23:28:04.128Z,55.80
2017-09-11T23:30:30.480Z,55.70
2017-09-11T23:32:56.879Z,55.70
2017-09-11T23:35:23.210Z,55.50
2017-09-11T23:37:49.600Z,55.50
2017-09-11T23:40:15.977Z,55.90
2017-09-11T23:42:42.301Z,56.00
2017-09-11T23:45:08.667Z,55.80
2017-09-11T23:47:34.984Z,55.70
2017-09-11T23:50:01.385Z,55.90
2017-09-11T23:52:27.702Z,55.90
2017-09-11T23:54:54.796Z,56.10
2017-09-11T23:57:21.179Z,56.10
2017-09-11T23:59:48.260Z,56.10
